EW4238 Weather Reports


Display with metric or nautical units.
time (UTC)temp
F
wind
direction
speed
MPH
gust
MPH
rain 1hr
in
rain 24hr
in
rain mn
in
humidity
%
barometer
mb
20180923115742 41 308 0.0 2.0 0.00 0.00 0.00 90 1013.0
20180923114243 41 307 0.0 0.0 0.00 0.00 0.00 90 1012.8
20180923112741 40 307 0.0 0.0 0.00 0.00 0.00 90 1012.8
20180923111240 40 307 0.0 0.0 0.00 0.00 0.00 90 1013.0
20180923105737 40 307 0.0 0.0 0.00 0.00 0.00 88 1013.0
20180923104236 41 307 0.0 0.0 0.00 0.00 0.00 88 1013.0
20180923102735 41 307 0.0 2.0 0.00 0.00 0.00 88 1013.0
20180923101232 41 303 0.0 3.0 0.00 0.00 0.00 88 1013.4
20180923095734 41 303 0.0 2.0 0.00 0.00 0.00 87 1013.3
20180923094231 41 303 0.0 3.0 0.00 0.00 0.00 87 1013.4
20180923092728 41 320 0.0 1.0 0.00 0.00 0.00 86 1013.2
20180923091226 42 320 0.0 0.0 0.00 0.00 0.00 86 1013.3
20180923085725 42 320 0.0 2.0 0.00 0.00 0.00 85 1013.3
20180923084224 42 320 0.0 1.0 0.00 0.00 0.00 85 1013.3
20180923082723 42 320 0.0 1.0 0.00 0.00 0.00 84 1013.4
20180923081221 42 320 2.0 7.0 0.00 0.00 0.00 84 1013.9
20180923075718 42 307 2.0 7.0 0.00 0.00 0.00 83 1014.0
20180923074213 43 48 0.0 3.0 0.00 0.00 0.00 83 1013.5
20180923072712 43 49 0.0 1.0 0.00 0.00 0.00 83 1013.5
20180923071212 43 49 0.0 1.0 0.00 0.00 0.00 83 1013.4
20180923065709 43 49 0.0 0.0 0.00 0.00 0.00 84 1013.6
20180923064208 43 49 0.0 2.0 0.00 0.00 0.00 83 1013.6
20180923062706 43 49 0.0 2.0 0.00 0.00 0.00 83 1013.8
20180923061204 43 49 0.0 3.0 0.00 0.00 0.00 83 1013.8
20180923055702 44 47 0.0 3.0 0.00 0.00 0.00 82 1014.0
20180923054202 44 47 1.0 3.0 0.00 0.00 0.00 81 1014.0
20180923052702 44 347 0.0 1.0 0.00 0.00 0.00 80 1014.0
20180923051200 44 347 0.0 0.0 0.00 0.00 0.00 79 1014.0
20180923045659 44 347 1.0 2.0 0.00 0.00 0.00 78 1013.9
20180923044158 44 347 0.0 5.0 0.00 0.00 0.00 78 1013.9
20180923042656 44 327 1.0 5.0 0.00 0.00 0.00 78 1013.6
20180923041155 45 309 1.0 3.0 0.00 0.00 0.00 77 1013.5
20180923035655 45 309 1.0 2.0 0.00 0.00 0.00 77 1013.3
20180923034155 46 321 1.0 3.0 0.00 0.00 0.00 76 1013.4
20180923032655 46 324 1.0 3.0 0.00 0.00 0.00 76 1013.3
20180923031154 46 324 0.0 1.0 0.00 0.00 0.00 76 1013.4
20180923025650 46 324 1.0 3.0 0.00 0.00 0.00 75 1013.5
20180923024151 47 47 0.0 3.0 0.00 0.00 0.00 75 1013.0
20180923022650 47 49 0.0 2.0 0.00 0.00 0.00 74 1013.0
20180923021147 47 62 0.0 3.0 0.00 0.00 0.00 74 1012.7
20180923015645 48 106 0.0 2.0 0.00 0.00 0.00 73 1012.4
20180923014145 48 147 0.0 2.0 0.00 0.00 0.00 73 1012.5
20180923012644 49 147 0.0 2.0 0.00 0.00 0.00 73 1012.2
20180923011143 49 147 0.0 1.0 0.00 0.00 0.00 72 1012.2
20180923005641 50 147 1.0 3.0 0.00 0.00 0.00 70 1012.0
20180923004142 52 143 0.0 6.0 0.00 0.00 0.00 67 1011.8
20180923002642 54 27 0.0 2.0 0.00 0.00 0.00 63 1011.7
20180923001140 55 10 1.0 2.0 0.00 0.00 0.00 62 1011.4
20180922235639 56 10 0.0 3.0 0.00 0.00 0.00 60 1011.4
20180922234140 56 8 0.0 2.0 0.00 0.00 0.00 60 1011.0
20180922232638 56 333 0.0 3.0 0.00 0.00 0.00 63 1010.9
20180922231137 55 335 0.0 5.0 0.00 0.00 0.00 62 1010.9
20180922225637 55 317 3.0 7.0 0.00 0.00 0.00 61 1010.8
20180922224135 55 93 0.0 0.0 0.00 0.00 0.00 62 1010.9
20180922222635 56 93 0.0 0.0 0.00 0.00 0.00 62 1010.9
20180922221134 57 93 1.0 3.0 0.00 0.00 0.00 57 1010.7
20180922215635 57 339 0.0 2.0 0.00 0.00 0.00 60 1010.6
20180922214134 57 338 0.0 2.0 0.00 0.00 0.00 60 1010.6
20180922212633 57 342 0.0 3.0 0.00 0.00 0.00 59 1010.6
20180922211132 58 344 1.0 4.0 0.00 0.00 0.00 59 1010.4
20180922205632 59 333 2.0 5.0 0.00 0.00 0.00 56 1010.7
20180922204133 60 347 0.0 9.0 0.00 0.00 0.00 56 1010.7
20180922202631 60 21 1.0 5.0 0.00 0.00 0.00 55 1010.6
20180922201131 59 303 4.0 9.0 0.00 0.00 0.00 55 1010.4
20180922195630 61 323 6.0 13.0 0.00 0.00 0.00 50 1010.7
20180922194128 61 297 3.0 6.0 0.00 0.00 0.00 52 1010.6
20180922192625 60 288 2.0 3.0 0.00 0.00 0.00 55 1010.5
20180922191124 59 185 1.0 8.0 0.00 0.00 0.00 57 1010.5
20180922185623 59 207 2.0 5.0 0.00 0.00 0.00 57 1010.5
20180922184120 57 119 1.0 3.0 0.00 0.00 0.00 60 1010.6
20180922182616 57 307 0.0 3.0 0.00 0.00 0.00 61 1010.5
20180922181112 55 276 1.0 4.0 0.00 0.00 0.00 63 1010.5
20180922175611 55 281 0.0 2.0 0.00 0.00 0.00 65 1010.6
20180922174108 54 262 0.0 2.0 0.00 0.00 0.00 65 1010.6
20180922172617 53 314 2.0 7.0 0.00 0.00 0.00 66 1010.6
20180922171102 53 283 0.0 4.0 0.00 0.00 0.00 68 1010.6
20180922165602 52 280 0.0 1.0 0.00 0.00 0.00 71 1010.5
20180922164104 52 321 0.0 3.0 0.00 0.00 0.00 73 1010.4
20180922162601 50 228 0.0 2.0 0.00 0.00 0.00 76 1010.5
20180922161058 49 194 0.0 2.0 0.00 0.00 0.00 79 1010.6
20180922155558 48 185 0.0 4.0 0.00 0.00 0.00 81 1010.6
20180922154058 47 320 0.0 2.0 0.00 0.00 0.00 83 1010.6
20180922152557 45 320 1.0 2.0 0.00 0.00 0.00 86 1010.7
20180922151057 44 320 0.0 0.0 0.00 0.00 0.00 87 1010.7
20180922145557 42 320 0.0 4.0 0.00 0.00 0.00 88 1010.7
20180922144055 42 314 0.0 2.0 0.00 0.00 0.00 88 1010.6
20180922142554 41 314 1.0 5.0 0.00 0.00 0.00 88 1010.6
20180922141054 41 304 2.0 4.0 0.00 0.00 0.00 86 1010.5
20180922135652 41 337 1.0 5.0 0.00 0.00 0.00 86 1010.4
20180922134050 40 336 3.0 8.0 0.00 0.00 0.00 86 1010.1
20180922131042 41 319 0.0 2.0 0.00 0.00 0.00 86 1009.8
20180922125540 42 319 0.0 1.0 0.00 0.00 0.00 86 1009.5
20180922124039 42 319 0.0 2.0 0.00 0.00 0.00 84 1009.7
20180922122536 43 319 1.0 5.0 0.00 0.00 0.00 84 1009.9
20180922121034 43 312 0.0 3.0 0.00 0.00 0.00 83 1009.8